Time;durP1;ratioP1;P1;durP2;ratioP2;P2;SDS_P1;SDS_P2;PMS_P1;PMS_P2;Temp;Humidity;BMP_temperature;BMP_pressure;BME280_temperature;BME280_humidity;BME280_pressure;Samples;Min_cycle;Max_cycle;Signal;HPM_P1;HPM_P2
2021/04/02 00:00:41;;;;;;;12.60;4.43;;;;;;;8.94;48.83;102505.88;4903885;28;113920;-73
2021/04/02 00:03:11;;;;;;;15.13;4.32;;;;;;;8.91;48.70;102494.47;4913040;28;124585;-73
2021/04/02 00:05:38;;;;;;;10.02;4.10;;;;;;;8.88;48.79;102494.53;4902429;28;124432;-74
2021/04/02 00:08:05;;;;;;;11.73;4.55;;;;;;;8.85;49.17;102492.75;4916708;28;114791;-73
2021/04/02 00:11:10;;;;;;;14.05;4.45;;;;;;;8.81;49.23;102498.13;4908364;28;113315;-73
2021/04/02 00:13:41;;;;;;;11.98;4.38;;;;;;;8.75;49.03;102489.34;4878916;28;124508;-74
2021/04/02 00:16:10;;;;;;;11.10;3.75;;;;;;;8.71;49.35;102492.94;4897920;28;123908;-74
2021/04/02 00:18:36;;;;;;;15.38;4.47;;;;;;;8.68;49.07;102508.84;4894379;28;114386;-73
2021/04/02 00:21:06;;;;;;;11.75;3.83;;;;;;;8.65;49.38;102493.00;4908354;28;114841;-73
2021/04/02 00:23:33;;;;;;;13.18;3.90;;;;;;;8.62;49.20;102493.03;4903599;28;123754;-73
2021/04/02 00:26:00;;;;;;;12.38;4.10;;;;;;;8.59;49.50;102487.78;4894299;28;124186;-73
2021/04/02 00:28:28;;;;;;;11.65;4.10;;;;;;;8.57;49.36;102489.56;4901914;28;114055;-73
2021/04/02 00:30:57;;;;;;;10.98;3.80;;;;;;;8.56;49.36;102490.44;4900455;28;114654;-73
2021/04/02 00:33:29;;;;;;;10.30;4.07;;;;;;;8.53;49.69;102493.13;4894927;28;124423;-74
2021/04/02 00:35:57;;;;;;;10.10;3.42;;;;;;;8.52;49.83;102488.75;4895927;28;123862;-73
2021/04/02 00:38:23;;;;;;;11.13;3.80;;;;;;;8.51;49.63;102484.34;4896234;28;115816;-73
2021/04/02 00:41:06;;;;;;;9.77;3.70;;;;;;;8.49;49.70;102486.13;4892730;28;115254;-74
2021/04/02 00:43:36;;;;;;;8.32;3.58;;;;;;;8.47;49.95;102487.91;4893224;28;123775;-73
2021/04/02 00:46:06;;;;;;;8.18;3.35;;;;;;;8.43;49.59;102491.47;4893093;28;124105;-74
2021/04/02 00:48:33;;;;;;;10.90;3.20;;;;;;;8.38;49.59;102491.47;4913496;28;114307;-74
2021/04/02 00:51:27;;;;;;;10.90;3.67;;;;;;;8.31;49.86;102493.28;4892866;28;114893;-73
2021/04/02 00:53:56;;;;;;;12.05;3.65;;;;;;;8.27;49.84;102496.84;4892118;28;124077;-73
2021/04/02 00:56:23;;;;;;;15.00;4.10;;;;;;;8.22;49.71;102482.81;4893245;28;124408;-73
2021/04/02 00:58:50;;;;;;;10.18;3.40;;;;;;;8.17;49.74;102489.88;4896962;28;114659;-73
2021/04/02 01:01:17;;;;;;;11.93;3.60;;;;;;;8.11;50.21;102489.94;4891800;28;113838;-73
2021/04/02 01:03:46;;;;;;;8.15;3.60;;;;;;;8.05;50.32;102495.28;4893365;28;124113;-74
2021/04/02 01:06:21;;;;;;;11.45;3.80;;;;;;;7.98;50.33;102497.94;4907079;28;123423;-73
2021/04/02 01:08:49;;;;;;;10.85;3.50;;;;;;;7.93;50.49;102490.94;4893607;28;114648;-73
2021/04/02 01:11:19;;;;;;;7.20;3.83;;;;;;;7.89;50.71;102494.50;4894047;28;113188;-73
2021/04/02 01:13:58;;;;;;;12.43;4.00;;;;;;;7.83;50.81;102489.28;4912679;28;123568;-73
2021/04/02 01:16:28;;;;;;;9.25;3.95;;;;;;;7.80;51.20;102492.81;4898676;28;124522;-75
2021/04/02 01:19:06;;;;;;;13.63;4.35;;;;;;;7.77;51.23;102485.78;4913831;28;114106;-75
2021/04/02 01:21:41;;;;;;;15.35;4.18;;;;;;;7.72;51.11;102486.72;4912026;28;113093;-75
2021/04/02 01:24:09;;;;;;;16.23;4.63;;;;;;;7.69;51.18;102486.75;4908436;28;123441;-75
2021/04/02 01:27:12;;;;;;;10.07;4.25;;;;;;;7.67;51.55;102480.63;4896209;28;123271;-75
2021/04/02 01:30:02;;;;;;;13.65;4.40;;;;;;;7.64;51.33;102488.53;4891116;28;114981;-76
2021/04/02 01:32:36;;;;;;;11.80;4.25;;;;;;;7.64;51.41;102488.53;4895855;28;115357;-75
2021/04/02 01:35:25;;;;;;;16.20;4.95;;;;;;;7.63;51.68;102492.03;4891613;28;124181;-75
2021/04/02 01:38:12;;;;;;;18.40;5.20;;;;;;;7.60;51.28;102485.91;4897138;28;124586;-75
2021/04/02 01:40:46;;;;;;;14.35;4.93;;;;;;;7.58;51.64;102485.03;4887871;28;113420;-75
2021/04/02 01:43:27;;;;;;;12.23;4.63;;;;;;;7.57;51.68;102488.56;4894532;28;114987;-75
2021/04/02 01:45:54;;;;;;;12.57;4.65;;;;;;;7.55;51.75;102479.81;4910684;28;124031;-75
2021/04/02 01:48:24;;;;;;;10.80;4.40;;;;;;;7.53;51.84;102489.44;4894276;28;123120;-75
2021/04/02 01:50:53;;;;;;;13.52;4.82;;;;;;;7.51;52.08;102483.31;4917308;28;114445;-75
2021/04/02 01:53:24;;;;;;;9.40;4.50;;;;;;;7.49;52.20;102479.81;4890576;28;113379;-75
2021/04/02 01:55:53;;;;;;;10.02;4.50;;;;;;;7.49;52.00;102485.09;4889753;28;123807;-75
2021/04/02 01:58:23;;;;;;;15.02;5.00;;;;;;;7.48;52.07;102488.63;4894825;28;124729;-75
2021/04/02 02:00:57;;;;;;;9.80;4.78;;;;;;;7.47;52.32;102486.88;4890712;28;114069;-75
2021/04/02 02:03:34;;;;;;;12.65;4.68;;;;;;;7.45;52.16;102488.63;4893897;28;113124;-75
2021/04/02 02:06:08;;;;;;;11.52;4.63;;;;;;;7.44;52.43;102486.91;4910914;28;123469;-75
2021/04/02 02:08:58;;;;;;;15.95;4.55;;;;;;;7.43;52.14;102484.25;4908033;28;122988;-75
2021/04/02 02:11:33;;;;;;;13.48;4.38;;;;;;;7.40;52.60;102485.13;4875387;28;113989;-75
2021/04/02 02:14:11;;;;;;;11.30;4.47;;;;;;;7.40;52.21;102490.41;4890731;28;113718;-75
2021/04/02 02:16:48;;;;;;;13.95;4.20;;;;;;;7.39;52.35;102488.69;4906589;28;123626;-76
2021/04/02 02:19:19;;;;;;;12.63;4.63;;;;;;;7.38;52.45;102486.91;4890881;28;123461;-75
2021/04/02 02:21:51;;;;;;;14.57;4.55;;;;;;;7.38;52.37;102486.91;4872012;28;114797;-75
2021/04/02 02:24:19;;;;;;;11.30;4.15;;;;;;;7.37;52.17;102485.19;4891020;28;115036;-75
2021/04/02 02:26:47;;;;;;;13.10;3.92;;;;;;;7.34;52.42;102477.28;4886939;28;123567;-75
2021/04/02 02:29:15;;;;;;;17.15;4.50;;;;;;;7.31;52.32;102479.91;4906606;28;123777;-75
2021/04/02 02:31:43;;;;;;;12.00;4.70;;;;;;;7.29;52.33;102481.69;4890417;28;114242;-75
2021/04/02 02:34:12;;;;;;;11.40;4.35;;;;;;;7.28;52.59;102485.22;4891189;28;114161;-75
2021/04/02 02:36:47;;;;;;;12.93;4.45;;;;;;;7.25;52.52;102485.22;4902663;28;123187;-75
2021/04/02 02:39:15;;;;;;;12.43;4.38;;;;;;;7.25;52.59;102491.34;4920861;28;123119;-75
2021/04/02 02:41:47;;;;;;;13.48;4.25;;;;;;;7.26;52.53;102487.84;4893730;28;113569;-75
2021/04/02 02:44:14;;;;;;;9.10;3.95;;;;;;;7.24;52.37;102480.84;4890405;28;113738;-75
2021/04/02 02:46:43;;;;;;;11.15;3.90;;;;;;;7.25;52.61;102485.22;4889713;28;124125;-75
2021/04/02 02:49:17;;;;;;;11.90;4.35;;;;;;;7.24;52.81;102488.75;4898784;28;124670;-75
2021/04/02 02:51:50;;;;;;;14.05;3.92;;;;;;;7.26;52.43;102489.63;4895231;28;114240;-75
2021/04/02 02:54:22;;;;;;;12.13;3.97;;;;;;;7.26;52.14;102489.63;4908902;28;114676;-75
2021/04/02 02:56:56;;;;;;;10.90;3.78;;;;;;;7.26;52.39;102492.25;4894142;28;123223;-75
2021/04/02 02:59:25;;;;;;;10.95;4.13;;;;;;;7.26;52.30;102487.84;4916239;28;122595;-75
2021/04/02 03:01:54;;;;;;;11.73;3.75;;;;;;;7.26;52.55;102487.00;4917736;28;114157;-75
2021/04/02 03:04:25;;;;;;;11.32;3.80;;;;;;;7.27;52.59;102488.72;4904937;28;113890;-76
2021/04/02 03:06:54;;;;;;;7.45;3.70;;;;;;;7.28;52.37;102490.50;4891685;28;123424;-75
2021/04/02 03:09:23;;;;;;;13.32;3.63;;;;;;;7.30;52.78;102494.00;4896191;28;123476;-75
2021/04/02 03:11:51;;;;;;;9.15;3.20;;;;;;;7.30;52.57;102494.00;4886023;28;115163;-75
2021/04/02 03:14:20;;;;;;;10.07;3.42;;;;;;;7.33;52.80;102494.00;4915997;28;114192;-75
2021/04/02 03:16:50;;;;;;;10.10;3.45;;;;;;;7.34;53.01;102490.44;4877126;28;123953;-75
2021/04/02 03:19:21;;;;;;;10.65;3.60;;;;;;;7.36;53.01;102488.69;4891741;28;123227;-75
2021/04/02 03:21:55;;;;;;;11.73;3.78;;;;;;;7.38;52.87;102481.63;4893660;28;113186;-75
2021/04/02 03:24:33;;;;;;;9.68;3.42;;;;;;;7.41;52.65;102486.91;4894017;28;114035;-75
2021/04/02 03:27:03;;;;;;;10.80;3.72;;;;;;;7.44;53.00;102492.16;4905970;23;123942;-66
2021/04/02 03:29:31;;;;;;;10.32;3.15;;;;;;;7.46;53.09;102498.31;4896749;28;123025;-66
2021/04/02 03:32:03;;;;;;;9.38;3.70;;;;;;;7.49;53.04;102500.03;4912764;28;114318;-66
2021/04/02 03:34:33;;;;;;;7.13;3.05;;;;;;;7.51;53.40;102491.22;4892248;28;113132;-66
2021/04/02 03:37:04;;;;;;;14.00;3.35;;;;;;;7.54;53.46;102491.22;4876189;28;123905;-65
2021/04/02 03:39:32;;;;;;;9.65;3.20;;;;;;;7.56;53.07;102489.44;4912829;28;123816;-67
2021/04/02 03:42:09;;;;;;;10.80;3.45;;;;;;;7.58;53.37;102490.31;4895058;28;113411;-66
2021/04/02 03:44:41;;;;;;;13.50;3.90;;;;;;;7.62;53.19;102490.31;4895057;28;113116;-66
2021/04/02 03:47:14;;;;;;;8.40;3.33;;;;;;;7.65;53.58;102495.53;4881964;28;122443;-66
2021/04/02 03:49:43;;;;;;;7.28;2.92;;;;;;;7.70;53.13;102493.75;4927927;28;123211;-66
2021/04/02 03:52:20;;;;;;;9.73;3.05;;;;;;;7.73;53.36;102493.75;4909383;28;114291;-66
2021/04/02 03:54:52;;;;;;;9.90;3.00;;;;;;;7.76;53.18;102498.97;4881020;28;114616;-66
2021/04/02 03:57:24;;;;;;;11.00;3.78;;;;;;;7.77;53.18;102491.06;4917153;28;123801;-66
2021/04/02 03:59:53;;;;;;;11.93;3.42;;;;;;;7.80;53.18;102506.00;4910443;28;124769;-66
2021/04/02 04:02:21;;;;;;;9.18;3.80;;;;;;;7.82;53.46;102498.97;4908862;28;115267;-66
2021/04/02 04:04:53;;;;;;;8.70;3.33;;;;;;;7.83;53.23;102500.69;4910837;28;115565;-67
2021/04/02 04:07:22;;;;;;;7.22;2.80;;;;;;;7.82;53.33;102504.25;4899456;28;123317;-66
2021/04/02 04:09:52;;;;;;;9.57;3.17;;;;;;;7.81;52.95;102507.75;4890781;28;123893;-67
2021/04/02 04:12:22;;;;;;;11.32;3.13;;;;;;;7.78;53.47;102511.28;4895396;28;113515;-67
2021/04/02 04:14:57;;;;;;;9.20;3.28;;;;;;;7.77;53.40;102511.31;4893444;28;113539;-66
2021/04/02 04:17:29;;;;;;;8.27;2.92;;;;;;;7.77;53.46;102511.31;4895688;28;123582;-66
2021/04/02 04:20:05;;;;;;;7.53;3.00;;;;;;;7.74;53.21;102506.03;4895019;28;122988;-66
2021/04/02 04:22:40;;;;;;;8.48;3.13;;;;;;;7.74;53.42;102503.41;4895177;28;113009;-66
2021/04/02 04:25:11;;;;;;;8.80;3.45;;;;;;;7.77;53.50;102500.75;4911452;28;115898;-65
2021/04/02 04:27:43;;;;;;;9.80;3.20;;;;;;;7.79;53.72;102504.25;4907360;28;123909;-66
2021/04/02 04:30:16;;;;;;;9.25;3.70;;;;;;;7.79;53.83;102504.25;4894773;28;123685;-66
2021/04/02 04:32:43;;;;;;;6.57;3.25;;;;;;;7.82;53.62;102506.88;4897511;28;114119;-66
2021/04/02 04:35:14;;;;;;;13.38;3.88;;;;;;;7.84;53.98;102513.03;4893387;28;114066;-66
2021/04/02 04:37:43;;;;;;;10.82;3.58;;;;;;;7.86;53.75;102519.16;4907648;28;123105;-66
2021/04/02 04:40:14;;;;;;;9.73;4.10;;;;;;;7.87;53.76;102518.25;4912487;28;124397;-67
2021/04/02 04:42:44;;;;;;;7.93;3.63;;;;;;;7.89;54.03;102516.50;4892213;28;114764;-68
2021/04/02 04:45:11;;;;;;;10.65;4.13;;;;;;;7.90;54.18;102518.25;4910335;28;113980;-67
2021/04/02 04:47:38;;;;;;;11.35;3.65;;;;;;;7.94;54.32;102519.97;4912079;28;123814;-66
2021/04/02 04:50:07;;;;;;;10.77;3.50;;;;;;;7.96;54.36;102507.63;4912322;28;124176;-66
2021/04/02 04:52:39;;;;;;;8.32;3.72;;;;;;;8.01;54.51;102519.94;4911283;28;115547;-66
2021/04/02 04:55:09;;;;;;;12.52;4.38;;;;;;;8.02;54.14;102519.03;4908911;28;114926;-66
2021/04/02 04:57:39;;;;;;;11.73;3.75;;;;;;;8.02;54.32;102512.00;4911762;28;124268;-66
2021/04/02 05:00:12;;;;;;;17.30;4.00;;;;;;;8.04;54.03;102509.34;4890285;28;123916;-66
2021/04/02 05:02:43;;;;;;;11.48;4.35;;;;;;;8.06;54.23;102512.84;4891022;28;114149;-65
2021/04/02 05:05:17;;;;;;;11.57;4.57;;;;;;;8.05;54.21;102521.66;4907941;28;114237;-67
2021/04/02 05:07:44;;;;;;;13.80;4.65;;;;;;;8.06;54.17;102512.84;4923393;28;123303;-66
2021/04/02 05:10:12;;;;;;;11.45;4.30;;;;;;;8.07;54.63;102522.53;4894185;28;123441;-66
2021/04/02 05:12:41;;;;;;;13.15;4.22;;;;;;;8.08;54.57;102517.25;4890612;28;114617;-66
2021/04/02 05:15:10;;;;;;;11.63;4.95;;;;;;;8.10;54.34;102526.03;4884088;28;115383;-66
2021/04/02 05:17:38;;;;;;;9.43;4.50;;;;;;;8.11;54.69;102526.91;4893594;28;122303;-66
2021/04/02 05:20:06;;;;;;;13.63;4.18;;;;;;;8.11;54.14;102521.63;4892360;28;123660;-66
2021/04/02 05:22:32;;;;;;;10.27;4.55;;;;;;;8.12;54.53;102526.03;4893607;28;113094;-66
2021/04/02 05:24:59;;;;;;;10.95;4.57;;;;;;;8.14;54.42;102522.47;4893824;28;113689;-66
2021/04/02 05:27:26;;;;;;;14.52;4.60;;;;;;;8.16;54.75;102530.38;4894057;28;123007;-66
2021/04/02 05:29:53;;;;;;;14.70;4.70;;;;;;;8.17;54.67;102532.13;4894801;28;123722;-66
2021/04/02 05:32:20;;;;;;;11.60;4.20;;;;;;;8.19;54.40;102530.34;4911959;28;114618;-66
2021/04/02 05:34:47;;;;;;;10.00;4.00;;;;;;;8.19;54.48;102532.97;4917330;28;114178;-66
2021/04/02 05:37:13;;;;;;;17.17;4.53;;;;;;;8.21;54.82;102533.84;4893091;28;123082;-66
2021/04/02 05:39:40;;;;;;;11.88;4.50;;;;;;;8.21;54.59;102539.13;4911819;28;123977;-66
2021/04/02 05:42:07;;;;;;;7.57;3.67;;;;;;;8.23;54.66;102542.66;4915072;28;115405;-66
2021/04/02 05:44:36;;;;;;;14.32;4.15;;;;;;;8.22;54.58;102543.53;4894424;28;115469;-66
2021/04/02 05:47:09;;;;;;;9.23;3.65;;;;;;;8.24;54.84;102544.38;4893361;28;124626;-66
2021/04/02 05:49:36;;;;;;;12.55;3.95;;;;;;;8.26;54.63;102553.16;4910198;28;123307;-66
2021/04/02 05:52:03;;;;;;;12.70;4.10;;;;;;;8.27;54.55;102549.66;4894062;28;113360;-66
2021/04/02 05:54:36;;;;;;;10.00;4.03;;;;;;;8.28;54.58;102551.38;4911472;28;113870;-66
2021/04/02 05:57:03;;;;;;;16.45;4.07;;;;;;;8.28;54.43;102551.38;4891965;28;124419;-66
2021/04/02 05:59:30;;;;;;;12.60;3.90;;;;;;;8.29;54.69;102552.28;4911992;28;123240;-66
2021/04/02 06:01:57;;;;;;;9.32;3.53;;;;;;;8.30;54.34;102549.59;4894143;28;113255;-66
2021/04/02 06:04:23;;;;;;;13.38;3.70;;;;;;;8.32;54.37;102553.09;4911149;28;114010;-66
2021/04/02 06:06:50;;;;;;;9.73;3.28;;;;;;;8.33;54.32;102557.50;4903359;28;124907;-66
2021/04/02 06:09:16;;;;;;;14.70;3.58;;;;;;;8.35;54.73;102547.81;4912276;28;124186;-66
2021/04/02 06:11:43;;;;;;;10.02;3.35;;;;;;;8.38;54.29;102547.78;4890825;28;114011;-66
2021/04/02 06:14:09;;;;;;;14.18;3.53;;;;;;;8.41;54.26;102557.44;4912076;28;113174;-66
2021/04/02 06:16:36;;;;;;;14.20;3.30;;;;;;;8.45;54.32;102547.78;4909993;28;126029;-66
2021/04/02 06:19:09;;;;;;;8.15;3.20;;;;;;;8.49;54.33;102546.84;4911369;28;124459;-66
2021/04/02 06:21:53;;;;;;;12.25;3.00;;;;;;;8.54;54.60;102552.97;4908612;28;114212;-66
2021/04/02 06:24:40;;;;;;;10.82;3.15;;;;;;;8.59;54.43;102551.19;4888918;28;113006;-66
2021/04/02 06:27:09;;;;;;;13.65;2.97;;;;;;;8.68;54.62;102556.38;4916811;28;123444;-66
2021/04/02 06:29:44;;;;;;;15.90;3.13;;;;;;;8.75;54.43;102552.75;4897307;28;123195;-66
2021/04/02 06:32:15;;;;;;;9.93;2.85;;;;;;;8.84;54.46;102556.22;4910152;28;114855;-66
2021/04/02 06:34:48;;;;;;;12.48;2.88;;;;;;;8.90;54.40;102556.16;4914458;28;115724;-66
2021/04/02 06:37:17;;;;;;;14.15;2.85;;;;;;;8.97;53.88;102547.25;4910996;28;124208;-66
2021/04/02 06:39:53;;;;;;;13.50;3.03;;;;;;;9.04;54.61;102548.97;4903437;28;122632;-66
2021/04/02 06:42:33;;;;;;;13.00;2.97;;;;;;;9.15;54.07;102556.75;4889413;28;114327;-66
2021/04/02 06:45:06;;;;;;;13.07;2.97;;;;;;;9.28;53.94;102546.91;4896332;28;116724;-66
2021/04/02 06:47:37;;;;;;;14.73;2.80;;;;;;;9.36;53.94;102550.31;4910634;28;125261;-65
2021/04/02 06:50:17;;;;;;;6.18;2.40;;;;;;;9.48;53.50;102552.81;4912297;28;123901;-67
2021/04/02 06:52:55;;;;;;;11.13;2.70;;;;;;;9.58;53.10;102544.75;4911344;28;113592;-66
2021/04/02 06:55:23;;;;;;;13.07;2.70;;;;;;;9.65;53.20;102551.72;4885509;28;112986;-65
2021/04/02 06:57:53;;;;;;;8.95;2.42;;;;;;;9.72;53.00;102558.69;4911975;28;124373;-65
2021/04/02 07:00:22;;;;;;;11.57;2.42;;;;;;;9.80;53.12;102550.66;4913363;28;124348;-66
2021/04/02 07:02:49;;;;;;;9.77;2.60;;;;;;;9.89;52.84;102556.66;4895064;28;114308;-66
2021/04/02 07:05:26;;;;;;;9.55;2.78;;;;;;;9.98;52.80;102560.94;4894067;28;114258;-66
2021/04/02 07:08:02;;;;;;;9.90;2.75;;;;;;;10.05;52.51;102552.00;4912887;28;124696;-66
2021/04/02 07:10:30;;;;;;;10.98;2.83;;;;;;;10.14;52.47;102561.59;4911003;28;122665;-66
2021/04/02 07:13:00;;;;;;;9.80;2.60;;;;;;;10.24;52.62;102568.47;4895768;28;113198;-66
2021/04/02 07:15:28;;;;;;;11.52;2.65;;;;;;;10.38;52.48;102564.75;4915644;28;113897;-66
2021/04/02 07:17:55;;;;;;;11.38;2.50;;;;;;;10.50;52.11;102565.44;4915210;28;124252;-66
2021/04/02 07:20:22;;;;;;;5.90;2.33;;;;;;;10.59;51.80;102559.13;4897671;28;122710;-66
2021/04/02 07:22:50;;;;;;;8.25;2.60;;;;;;;10.68;51.75;102558.97;4913800;28;115116;-66
2021/04/02 07:25:17;;;;;;;13.05;2.42;;;;;;;10.78;51.54;102564.09;4890239;28;113930;-66
2021/04/02 07:27:44;;;;;;;11.80;2.50;;;;;;;10.83;51.07;102564.88;4894794;28;122976;-66
2021/04/02 07:30:14;;;;;;;8.73;2.20;;;;;;;10.84;50.85;102569.28;4912443;28;123842;-65
2021/04/02 07:32:42;;;;;;;6.57;2.17;;;;;;;10.86;50.81;102562.16;4909411;28;114061;-65
2021/04/02 07:35:39;;;;;;;8.05;3.00;;;;;;;10.90;50.77;102569.16;4910842;28;114035;-65
2021/04/02 07:38:15;;;;;;;12.93;2.70;;;;;;;10.96;50.64;102569.03;4893139;28;123079;-67
2021/04/02 07:40:48;;;;;;;10.55;2.25;;;;;;;11.03;50.58;102569.81;4920135;28;123174;-66
2021/04/02 07:43:14;;;;;;;10.43;2.60;;;;;;;11.07;50.30;102580.31;4909414;28;114871;-65
2021/04/02 07:45:41;;;;;;;7.72;2.03;;;;;;;11.10;49.98;102572.31;4897044;28;113816;-66
2021/04/02 07:48:15;;;;;;;8.82;2.22;;;;;;;11.13;49.87;102573.16;4895193;28;125889;-66
2021/04/02 07:50:46;;;;;;;7.60;2.30;;;;;;;11.14;49.74;102577.56;4895689;28;123907;-66
2021/04/02 07:53:16;;;;;;;10.57;2.60;;;;;;;11.16;49.80;102581.91;4894489;28;114085;-66
2021/04/02 07:56:02;;;;;;;13.25;2.60;;;;;;;11.18;49.53;102589.84;4903618;28;113130;-66
2021/04/02 07:58:30;;;;;;;7.68;2.20;;;;;;;11.21;49.50;102587.16;4913301;28;124036;-66
2021/04/02 08:01:00;;;;;;;12.07;2.35;;;;;;;11.23;49.57;102588.00;4908316;28;124156;-66
2021/04/02 08:03:32;;;;;;;7.57;2.10;;;;;;;11.26;49.39;102583.50;4913438;28;114428;-66
2021/04/02 08:06:10;;;;;;;11.95;2.45;;;;;;;11.28;49.32;102587.00;4905872;28;114224;-66
2021/04/02 08:08:46;;;;;;;9.57;2.38;;;;;;;11.30;49.19;102578.97;4896053;28;124069;-66
2021/04/02 08:11:25;;;;;;;9.50;2.50;;;;;;;11.37;49.48;102580.59;4898476;28;123320;-67
2021/04/02 08:14:04;;;;;;;11.38;2.55;;;;;;;11.45;49.38;102578.69;4910998;28;115068;-66
2021/04/02 08:16:31;;;;;;;10.35;2.13;;;;;;;11.57;49.33;102587.31;4913081;28;114955;-66
2021/04/02 08:19:17;;;;;;;7.68;2.25;;;;;;;11.68;49.32;102585.28;4906442;28;123436;-66
2021/04/02 08:21:50;;;;;;;9.77;2.30;;;;;;;11.82;49.07;102577.88;4918232;28;123481;-66
2021/04/02 08:24:19;;;;;;;9.75;2.35;;;;;;;11.95;48.98;102582.97;4920801;28;114738;-66
2021/04/02 08:26:47;;;;;;;9.57;2.22;;;;;;;12.03;48.65;102596.94;4913700;28;114167;-66
2021/04/02 08:29:15;;;;;;;9.82;2.60;;;;;;;12.07;48.07;102603.91;4931332;28;125035;-66
2021/04/02 08:31:49;;;;;;;10.13;2.17;;;;;;;12.01;47.31;102601.41;4913316;28;122519;-66
2021/04/02 08:34:22;;;;;;;13.63;2.00;;;;;;;11.97;47.13;102602.38;4908041;28;114920;-67
2021/04/02 08:36:51;;;;;;;7.00;1.88;;;;;;;12.00;47.45;102607.63;4907302;28;112962;-66
2021/04/02 08:39:23;;;;;;;10.48;2.22;;;;;;;12.05;47.67;102600.41;4912667;28;123773;-66
2021/04/02 08:41:53;;;;;;;8.30;2.20;;;;;;;12.07;47.59;102604.81;4912630;28;124269;-66
2021/04/02 08:44:26;;;;;;;11.50;2.40;;;;;;;12.10;47.38;102609.16;4906145;28;113294;-66
2021/04/02 08:46:57;;;;;;;8.40;2.20;;;;;;;12.15;47.24;102611.69;4902498;28;112736;-66
2021/04/02 08:49:23;;;;;;;7.57;2.20;;;;;;;12.16;47.05;102609.00;4906955;28;123202;-66
2021/04/02 08:51:50;;;;;;;8.32;2.00;;;;;;;12.14;47.15;102608.19;4895180;28;123137;-66
2021/04/02 08:54:19;;;;;;;11.25;2.65;;;;;;;12.13;46.98;102608.22;4912438;28;114393;-67
2021/04/02 08:56:49;;;;;;;11.35;2.15;;;;;;;12.11;46.80;102616.25;4912089;28;113796;-67
2021/04/02 08:59:17;;;;;;;11.05;2.28;;;;;;;12.04;46.32;102602.22;4912091;28;124357;-67
2021/04/02 09:01:48;;;;;;;13.10;2.30;;;;;;;11.96;46.50;102603.28;4912118;28;123903;-67
2021/04/02 09:04:16;;;;;;;10.35;3.45;;;;;;;11.93;46.45;102606.03;4894629;28;113887;-67
2021/04/02 09:06:44;;;;;;;23.92;3.28;;;;;;;11.92;46.51;102609.56;4908791;28;114314;-67
2021/04/02 09:09:16;;;;;;;10.95;2.53;;;;;;;11.86;46.36;102606.09;4894033;28;122787;-67
2021/04/02 09:11:44;;;;;;;11.45;2.80;;;;;;;11.86;46.79;102598.13;4888882;28;123221;-67
2021/04/02 09:14:11;;;;;;;11.15;2.47;;;;;;;11.86;46.29;102595.47;4911928;28;114174;-67
2021/04/02 09:16:42;;;;;;;9.30;2.10;;;;;;;11.84;46.46;102610.56;4916542;28;113719;-67
2021/04/02 09:19:10;;;;;;;8.55;2.47;;;;;;;11.83;46.54;102611.50;4894489;28;123022;-66
2021/04/02 09:21:53;;;;;;;12.02;2.75;;;;;;;11.87;46.25;102601.69;4910045;28;123548;-68
2021/04/02 09:24:22;;;;;;;9.07;2.58;;;;;;;11.95;46.76;102598.91;4895622;28;97257;-67
2021/04/02 09:26:49;;;;;;;14.48;2.65;;;;;;;12.07;46.55;102601.25;4890394;28;113670;-67
2021/04/02 09:29:20;;;;;;;8.27;2.70;;;;;;;12.19;46.98;102606.28;4924800;22;124680;-71
2021/04/02 09:31:47;;;;;;;9.93;2.40;;;;;;;12.33;46.22;102610.41;4911458;28;123962;-73
2021/04/02 09:34:18;;;;;;;11.43;2.40;;;;;;;12.40;46.15;102609.34;4894742;28;113147;-73
2021/04/02 09:36:49;;;;;;;9.60;2.72;;;;;;;12.45;46.04;102615.41;4889975;28;114145;-73
2021/04/02 09:39:21;;;;;;;10.93;2.50;;;;;;;12.50;46.09;102616.19;4893720;28;124508;-73
2021/04/02 09:41:53;;;;;;;8.73;2.10;;;;;;;12.54;45.95;102614.31;4893311;28;123530;-73
2021/04/02 09:44:28;;;;;;;9.90;2.72;;;;;;;12.56;45.29;102618.66;4908330;28;115153;-73
2021/04/02 09:47:14;;;;;;;12.77;2.50;;;;;;;12.58;45.46;102603.59;4886042;28;113253;-73
2021/04/02 09:49:41;;;;;;;;;;;;;;;12.58;45.61;102600.94;4886745;28;122863;-73
2021/04/02 09:52:09;;;;;;;10.02;2.58;;;;;;;12.59;45.38;102607.97;4901673;28;124631;-73
2021/04/02 09:54:37;;;;;;;9.60;2.75;;;;;;;12.55;45.51;102595.69;4898849;28;116157;-73
2021/04/02 09:57:06;;;;;;;14.93;2.83;;;;;;;12.52;45.21;102601.06;4897409;28;114667;-73
2021/04/02 09:59:33;;;;;;;14.10;2.90;;;;;;;12.50;45.76;102602.88;4892009;28;123613;-74
2021/04/02 10:02:00;;;;;;;4.93;2.63;;;;;;;12.46;45.46;102595.91;4896604;28;123200;-74
2021/04/02 10:04:27;;;;;;;7.45;2.90;;;;;;;12.42;45.69;102604.88;4888022;28;113765;-74
2021/04/02 10:06:54;;;;;;;11.63;3.90;;;;;;;12.39;45.60;102599.63;4892385;28;115061;-74
2021/04/02 10:09:21;;;;;;;7.35;2.65;;;;;;;12.42;46.06;102588.94;4899265;28;124625;-75
2021/04/02 10:11:49;;;;;;;13.60;3.03;;;;;;;12.45;45.75;102587.06;4891320;28;124774;-75
2021/04/02 10:14:17;;;;;;;10.40;2.60;;;;;;;12.48;45.62;102583.44;4898515;28;113009;-73
2021/04/02 10:16:45;;;;;;;7.43;2.53;;;;;;;12.52;45.77;102585.13;4897947;28;114904;-73
2021/04/02 10:19:13;;;;;;;11.02;2.72;;;;;;;12.59;45.55;102599.13;4905888;28;124291;-72
2021/04/02 10:21:41;;;;;;;7.03;2.20;;;;;;;12.66;45.25;102598.06;4885878;28;125686;-71
2021/04/02 10:24:08;;;;;;;7.55;2.30;;;;;;;12.70;44.74;102593.56;4902141;28;114230;-71
2021/04/02 10:26:35;;;;;;;5.97;2.30;;;;;;;12.74;44.67;102605.84;4877303;28;112252;-71
2021/04/02 10:29:02;;;;;;;7.47;2.65;;;;;;;12.76;44.58;102601.38;4905832;28;123882;-72
2021/04/02 10:31:29;;;;;;;6.53;2.20;;;;;;;12.77;44.22;102600.44;4905256;28;124268;-72
2021/04/02 10:33:56;;;;;;;7.75;2.60;;;;;;;12.78;44.25;102602.19;4903191;28;114448;-71
2021/04/02 10:36:23;;;;;;;7.57;2.38;;;;;;;12.81;44.58;102607.44;4910525;28;113824;-72
2021/04/02 10:38:50;;;;;;;8.50;2.55;;;;;;;12.82;44.30;102606.50;4906148;28;124587;-72
2021/04/02 10:41:17;;;;;;;5.90;2.42;;;;;;;12.79;44.49;102606.59;4909603;28;124755;-72
2021/04/02 10:43:44;;;;;;;9.57;2.80;;;;;;;12.78;44.51;102604.84;4892582;28;114213;-72
2021/04/02 10:46:14;;;;;;;6.03;2.22;;;;;;;12.77;44.30;102601.34;4893608;28;115366;-72
2021/04/02 10:48:41;;;;;;;7.50;2.53;;;;;;;12.77;44.35;102600.44;4885502;28;123603;-71
2021/04/02 10:51:08;;;;;;;7.97;2.30;;;;;;;12.77;44.12;102597.78;4894863;28;124187;-72
2021/04/02 10:53:36;;;;;;;7.78;2.58;;;;;;;12.78;43.85;102596.88;4895083;28;114247;-72
2021/04/02 10:56:05;;;;;;;8.60;2.45;;;;;;;12.76;43.84;102609.34;4917217;28;114025;-71
2021/04/02 10:58:34;;;;;;;7.47;2.53;;;;;;;12.73;44.11;102612.06;4927499;28;124538;-72
2021/04/02 11:01:01;;;;;;;9.05;2.50;;;;;;;12.72;44.25;102618.31;4929423;28;124702;-70
2021/04/02 11:03:29;;;;;;;10.32;2.60;;;;;;;12.71;43.75;102616.56;4933398;28;114973;-71
2021/04/02 11:05:55;;;;;;;8.75;2.55;;;;;;;12.68;43.86;102605.97;4916486;28;112499;-72
2021/04/02 11:08:23;;;;;;;10.82;2.60;;;;;;;12.65;43.92;102613.13;4900830;28;123602;-71
2021/04/02 11:10:49;;;;;;;8.27;2.63;;;;;;;12.69;44.05;102613.06;4911530;28;123873;-72
2021/04/02 11:13:16;;;;;;;7.55;2.72;;;;;;;12.69;43.96;102618.38;4898583;28;114877;-72
2021/04/02 11:15:42;;;;;;;6.07;2.60;;;;;;;12.71;43.95;102611.22;4892811;28;113313;-71
2021/04/02 11:18:09;;;;;;;8.10;2.53;;;;;;;12.73;44.01;102612.06;4909257;28;123894;-72
2021/04/02 11:20:36;;;;;;;8.43;2.65;;;;;;;12.72;43.83;102613.88;4902885;28;124219;-72
2021/04/02 11:23:02;;;;;;;8.40;2.47;;;;;;;12.73;43.65;102614.72;4907162;28;114453;-72
2021/04/02 11:25:29;;;;;;;8.07;2.63;;;;;;;12.78;43.84;102607.50;4895627;28;113914;-71
2021/04/02 11:27:56;;;;;;;7.40;2.45;;;;;;;12.81;43.70;102602.13;4900810;28;125454;-72
2021/04/02 11:30:23;;;;;;;8.43;3.17;;;;;;;12.84;43.78;102591.38;4900972;28;122677;-72
2021/04/02 11:32:50;;;;;;;7.38;2.80;;;;;;;12.86;43.43;102594.88;4895207;28;114581;-72